createdAt,value
2019-04-01T00:01:52.845Z,71.31
2019-04-01T00:04:23.222Z,71.69
2019-04-01T00:06:53.601Z,72.10
2019-04-01T00:09:23.884Z,73.00
2019-04-01T00:11:54.108Z,72.77
2019-04-01T00:14:25.128Z,73.07
2019-04-01T00:16:55.350Z,73.18
2019-04-01T00:19:26.383Z,73.70
2019-04-01T00:21:56.497Z,74.31
2019-04-01T00:24:26.776Z,74.50
2019-04-01T00:26:57.066Z,74.50
2019-04-01T00:29:27.781Z,74.40
2019-04-01T00:31:58.077Z,74.06
2019-04-01T00:34:28.257Z,74.05
2019-04-01T00:36:58.466Z,73.78
2019-04-01T00:39:28.774Z,74.32
2019-04-01T00:42:05.328Z,74.96
2019-04-01T00:44:35.688Z,75.11
2019-04-01T00:47:05.946Z,75.27
2019-04-01T00:49:36.261Z,75.23
2019-04-01T00:52:06.669Z,75.01
2019-04-01T00:54:37.271Z,74.88
2019-04-01T00:57:08.142Z,75.12
2019-04-01T00:59:38.407Z,75.64
2019-04-01T01:02:08.852Z,75.58
2019-04-01T01:04:43.479Z,75.30
2019-04-01T01:07:15.321Z,74.72
2019-04-01T01:09:47.266Z,74.16
2019-04-01T01:12:18.175Z,74.74
2019-04-01T01:14:48.596Z,75.11
2019-04-01T01:17:19.107Z,75.34
2019-04-01T01:19:49.802Z,75.25
2019-04-01T01:22:20.250Z,75.27
2019-04-01T01:24:50.766Z,75.22
2019-04-01T01:27:21.153Z,75.64
2019-04-01T01:29:51.874Z,75.97
2019-04-01T01:32:22.543Z,75.92
2019-04-01T01:34:52.921Z,75.96
2019-04-01T01:37:26.976Z,75.92
2019-04-01T01:39:58.119Z,75.92
2019-04-01T01:42:28.479Z,75.88
2019-04-01T01:44:59.029Z,75.06
2019-04-01T01:47:29.430Z,74.79
2019-04-01T01:49:59.793Z,75.06
2019-04-01T01:52:30.185Z,75.57
2019-04-01T01:55:00.701Z,74.98
2019-04-01T01:57:31.004Z,74.72
2019-04-01T02:00:01.392Z,74.92
2019-04-01T02:02:31.842Z,74.91
2019-04-01T02:05:02.223Z,74.93
2019-04-01T02:07:32.712Z,74.68
2019-04-01T02:10:03.612Z,74.49
2019-04-01T02:12:34.043Z,74.62
2019-04-01T02:15:04.886Z,74.76
2019-04-01T02:17:35.331Z,75.02
2019-04-01T02:20:06.075Z,74.33
2019-04-01T02:22:36.487Z,73.96
2019-04-01T02:25:07.174Z,74.22
2019-04-01T02:27:37.962Z,74.83
2019-04-01T02:30:08.476Z,75.04
2019-04-01T02:32:38.895Z,75.74
2019-04-01T02:35:09.635Z,76.25
2019-04-01T02:37:40.040Z,75.93
2019-04-01T02:40:10.745Z,76.28
2019-04-01T02:42:41.207Z,76.25
2019-04-01T02:45:11.835Z,76.12
2019-04-01T02:47:42.227Z,76.28
2019-04-01T02:50:12.937Z,76.47
2019-04-01T02:52:43.327Z,76.64
2019-04-01T02:55:17.956Z,76.42
2019-04-01T02:57:48.362Z,76.08
2019-04-01T03:00:20.340Z,75.75
2019-04-01T03:02:50.784Z,75.51
2019-04-01T03:05:21.095Z,75.47
2019-04-01T03:07:51.507Z,75.53
2019-04-01T03:10:21.880Z,76.12
2019-04-01T03:12:52.278Z,76.41
2019-04-01T03:15:22.945Z,76.62
2019-04-01T03:17:53.531Z,76.63
2019-04-01T03:20:24.178Z,76.64
2019-04-01T03:22:54.547Z,76.58
2019-04-01T03:25:24.869Z,76.56
2019-04-01T03:27:55.959Z,76.50
2019-04-01T03:30:26.380Z,76.33
2019-04-01T03:32:56.743Z,75.51
2019-04-01T03:35:27.216Z,74.77
2019-04-01T03:37:57.515Z,74.93
2019-04-01T03:40:28.301Z,74.80
2019-04-01T03:42:59.090Z,74.79
2019-04-01T03:45:29.538Z,74.43
2019-04-01T03:48:00.086Z,74.78
2019-04-01T03:50:30.532Z,74.01
2019-04-01T03:53:00.821Z,73.93
2019-04-01T03:55:31.151Z,74.05
2019-04-01T03:58:01.588Z,73.41
2019-04-01T04:00:31.899Z,73.60
2019-04-01T04:03:02.297Z,74.39
2019-04-01T04:05:33.129Z,74.61
2019-04-01T04:08:03.529Z,74.39
2019-04-01T04:10:33.945Z,74.88
2019-04-01T04:13:04.376Z,74.71
2019-04-01T04:15:34.962Z,74.42
2019-04-01T04:18:05.745Z,75.47
2019-04-01T04:20:36.053Z,75.50
2019-04-01T04:23:06.468Z,75.77
2019-04-01T04:25:36.968Z,75.97
2019-04-01T04:28:07.774Z,76.36
2019-04-01T04:30:38.153Z,76.59
2019-04-01T04:33:08.605Z,76.32
2019-04-01T04:35:39.016Z,76.86
2019-04-01T04:38:09.458Z,77.30
2019-04-01T04:40:41.148Z,77.46
2019-04-01T04:43:11.667Z,76.92
2019-04-01T04:45:42.332Z,76.67
2019-04-01T04:48:12.759Z,76.70
2019-04-01T04:50:43.120Z,77.09
2019-04-01T04:53:13.615Z,77.36
2019-04-01T04:55:45.993Z,77.62
2019-04-01T04:58:16.375Z,77.91
2019-04-01T05:00:47.635Z,78.14
2019-04-01T05:03:18.087Z,78.28
2019-04-01T05:05:48.904Z,78.09
2019-04-01T05:08:20.190Z,78.09
2019-04-01T05:10:50.654Z,78.34
2019-04-01T05:13:20.979Z,78.43
2019-04-01T05:15:51.393Z,78.32
2019-04-01T05:18:21.803Z,78.28
2019-04-01T05:20:52.672Z,77.74
2019-04-01T05:23:25.189Z,77.79
2019-04-01T05:25:56.076Z,77.59
2019-04-01T05:28:28.982Z,77.59
2019-04-01T05:31:01.732Z,77.44
2019-04-01T05:33:35.124Z,77.49
2019-04-01T05:36:05.858Z,77.38
2019-04-01T05:38:36.429Z,77.21
2019-04-01T05:41:07.655Z,76.74
2019-04-01T05:43:38.119Z,76.54
2019-04-01T05:46:08.557Z,76.49
2019-04-01T05:48:38.967Z,76.33
2019-04-01T05:51:09.354Z,76.07
2019-04-01T05:53:39.821Z,75.82
2019-04-01T05:56:11.306Z,75.11
2019-04-01T05:58:43.359Z,75.06
2019-04-01T06:01:21.592Z,75.02
2019-04-01T06:03:53.031Z,74.55
2019-04-01T06:06:23.445Z,74.44
2019-04-01T06:08:54.127Z,74.08
2019-04-01T06:11:24.487Z,73.64
2019-04-01T06:13:55.160Z,72.97
2019-04-01T06:16:25.664Z,72.01
2019-04-01T06:18:56.099Z,71.96
2019-04-01T06:21:27.122Z,70.65
2019-04-01T06:23:58.529Z,70.44
2019-04-01T06:26:29.175Z,69.26
2019-04-01T06:28:59.503Z,68.37
2019-04-01T06:31:30.164Z,66.64
2019-04-01T06:34:00.758Z,66.38
2019-04-01T06:36:31.228Z,65.69
2019-04-01T06:39:01.807Z,65.48
2019-04-01T06:41:32.290Z,64.74
2019-04-01T06:44:02.690Z,64.10
2019-04-01T06:46:33.067Z,63.35
2019-04-01T06:49:04.178Z,62.84
2019-04-01T06:51:35.081Z,62.68
2019-04-01T06:54:05.990Z,61.31
2019-04-01T06:56:36.392Z,60.74
2019-04-01T06:59:06.879Z,59.72
2019-04-01T07:01:37.255Z,60.45
2019-04-01T07:04:08.195Z,60.63
2019-04-01T07:06:38.888Z,60.52
2019-04-01T07:09:09.314Z,60.51
2019-04-01T07:11:39.840Z,59.69
2019-04-01T07:14:10.355Z,59.35
2019-04-01T07:16:40.872Z,59.27
2019-04-01T07:19:11.319Z,58.82
2019-04-01T07:21:42.603Z,58.06
2019-04-01T07:24:13.365Z,56.33
2019-04-01T07:26:45.005Z,54.28
2019-04-01T07:29:15.507Z,54.25
2019-04-01T07:31:45.937Z,53.00
2019-04-01T07:34:17.286Z,51.88
2019-04-01T07:36:47.748Z,53.24
2019-04-01T07:39:18.204Z,53.58
2019-04-01T07:41:48.611Z,52.36
2019-04-01T07:44:19.116Z,53.22
2019-04-01T07:46:49.432Z,52.68
2019-04-01T07:49:20.268Z,53.05
2019-04-01T07:51:50.810Z,52.29
2019-04-01T07:54:21.555Z,52.48
2019-04-01T07:56:51.957Z,52.34
2019-04-01T07:59:22.792Z,51.70
2019-04-01T08:01:53.969Z,51.89
2019-04-01T08:04:24.526Z,51.09
2019-04-01T08:06:55.204Z,51.71
2019-04-01T08:09:25.759Z,51.10
2019-04-01T08:11:56.280Z,51.44
2019-04-01T08:14:26.980Z,51.35
2019-04-01T08:16:58.670Z,51.03
2019-04-01T08:19:29.415Z,50.67
2019-04-01T08:22:00.103Z,50.78
2019-04-01T08:24:32.132Z,50.93
2019-04-01T08:27:02.904Z,51.48
2019-04-01T08:29:33.387Z,50.89
2019-04-01T08:32:04.528Z,50.95
2019-04-01T08:34:35.137Z,50.77
2019-04-01T08:37:05.638Z,50.32
2019-04-01T08:39:37.553Z,50.86
2019-04-01T08:42:07.891Z,49.42
2019-04-01T08:44:38.715Z,48.68
2019-04-01T08:47:09.478Z,49.49
2019-04-01T08:49:39.915Z,49.49
2019-04-01T08:52:10.619Z,49.81
2019-04-01T08:54:41.081Z,49.84
2019-04-01T08:57:11.597Z,48.79
2019-04-01T08:59:42.513Z,48.06
2019-04-01T09:02:17.985Z,47.98
2019-04-01T09:04:45.669Z,47.48
2019-04-01T09:07:16.444Z,47.74
2019-04-01T09:09:48.365Z,48.25
2019-04-01T09:12:19.006Z,48.07
2019-04-01T09:14:51.884Z,46.89
2019-04-01T09:17:23.346Z,48.08
2019-04-01T09:19:54.310Z,46.54
2019-04-01T09:22:25.128Z,46.34
2019-04-01T09:24:55.506Z,46.79
2019-04-01T09:27:25.927Z,46.89
2019-04-01T09:29:56.387Z,45.57
2019-04-01T09:32:26.727Z,44.46
2019-04-01T09:34:57.531Z,43.88
2019-04-01T09:37:28.233Z,42.58
2019-04-01T09:39:58.806Z,43.38
2019-04-01T09:42:29.628Z,41.86
2019-04-01T09:45:00.046Z,42.09
2019-04-01T09:47:30.501Z,42.84
2019-04-01T09:50:01.289Z,42.93
2019-04-01T09:52:31.717Z,41.71
2019-04-01T09:55:05.875Z,42.98
2019-04-01T09:57:34.598Z,42.62
2019-04-01T10:00:05.988Z,43.95
2019-04-01T10:02:36.338Z,42.30
2019-04-01T10:05:07.430Z,42.02
2019-04-01T10:07:38.087Z,43.56
2019-04-01T10:10:09.024Z,43.33
2019-04-01T10:12:39.515Z,42.03
2019-04-01T10:15:10.581Z,44.34
2019-04-01T10:17:41.001Z,46.59
2019-04-01T10:20:12.850Z,47.30
2019-04-01T10:22:43.285Z,47.04
2019-04-01T10:25:13.777Z,48.67
2019-04-01T10:27:44.262Z,48.56
2019-04-01T10:30:15.300Z,48.99
2019-04-01T10:32:45.758Z,48.91
2019-04-01T10:35:17.587Z,48.49
2019-04-01T10:37:48.098Z,47.61
2019-04-01T10:40:20.523Z,48.57
2019-04-01T10:42:50.902Z,48.18
2019-04-01T10:45:22.302Z,48.81
2019-04-01T10:47:52.844Z,47.82
2019-04-01T10:50:23.713Z,46.68
2019-04-01T10:52:54.175Z,44.81
2019-04-01T10:55:24.628Z,45.51
2019-04-01T10:57:55.558Z,45.94
2019-04-01T11:00:26.679Z,46.66
2019-04-01T11:02:57.102Z,47.73
2019-04-01T11:05:27.686Z,47.25
2019-04-01T11:07:58.706Z,46.81
2019-04-01T11:10:29.811Z,46.80
2019-04-01T11:13:00.269Z,46.59
2019-04-01T11:15:31.054Z,47.45
2019-04-01T11:18:01.538Z,47.07
2019-04-01T11:20:31.989Z,47.16
2019-04-01T11:23:03.123Z,46.34
2019-04-01T11:25:34.810Z,47.32
2019-04-01T11:28:05.755Z,48.35
2019-04-01T11:30:37.090Z,46.81
2019-04-01T11:33:08.198Z,46.66
2019-04-01T11:35:38.718Z,47.96
2019-04-01T11:38:09.386Z,47.31
2019-04-01T11:40:40.102Z,47.00
2019-04-01T11:43:11.029Z,46.71
2019-04-01T11:45:41.481Z,46.76
2019-04-01T11:48:12.108Z,46.11
2019-04-01T11:50:42.569Z,47.21
2019-04-01T11:53:13.236Z,46.69
2019-04-01T11:55:43.622Z,46.42
2019-04-01T11:58:14.320Z,46.60
2019-04-01T12:00:44.982Z,46.09
2019-04-01T12:03:15.700Z,45.54
2019-04-01T12:05:46.141Z,45.83
2019-04-01T12:08:16.487Z,45.15
2019-04-01T12:10:46.904Z,45.46
2019-04-01T12:13:17.379Z,45.22
2019-04-01T12:15:47.891Z,44.96
2019-04-01T12:18:18.744Z,45.53
2019-04-01T12:20:49.173Z,46.25
2019-04-01T12:23:19.952Z,44.42
2019-04-01T12:25:50.350Z,43.95
2019-04-01T12:28:21.054Z,44.38
2019-04-01T12:30:52.181Z,43.86
2019-04-01T12:33:25.963Z,44.58
2019-04-01T12:35:55.744Z,43.38
2019-04-01T12:38:26.182Z,44.72
2019-04-01T12:40:56.681Z,44.33
2019-04-01T12:43:27.160Z,44.32
2019-04-01T12:45:57.866Z,43.84
2019-04-01T12:48:28.900Z,43.89
2019-04-01T12:50:59.546Z,44.63
2019-04-01T12:53:29.990Z,43.98
2019-04-01T12:56:00.419Z,42.94
2019-04-01T12:58:30.860Z,43.17
2019-04-01T13:01:01.375Z,43.29
2019-04-01T13:03:31.737Z,43.39
2019-04-01T13:06:02.167Z,43.96
2019-04-01T13:08:32.584Z,43.99
2019-04-01T13:11:03.079Z,43.21
2019-04-01T13:13:33.516Z,43.47
2019-04-01T13:16:03.936Z,42.95
2019-04-01T13:18:37.971Z,43.10
2019-04-01T13:21:06.646Z,43.51
2019-04-01T13:23:37.108Z,43.43
2019-04-01T13:26:07.583Z,42.91
2019-04-01T13:28:37.925Z,42.75
2019-04-01T13:31:08.470Z,42.43
2019-04-01T13:33:38.997Z,41.80
2019-04-01T13:36:09.447Z,41.81
2019-04-01T13:38:39.887Z,42.69
2019-04-01T13:41:13.154Z,42.97
2019-04-01T13:43:42.431Z,43.09
2019-04-01T13:46:12.788Z,42.81
2019-04-01T13:48:56.929Z,41.90
2019-04-01T13:51:15.459Z,41.91
2019-04-01T13:53:45.919Z,41.46
2019-04-01T13:56:16.626Z,41.41
2019-04-01T13:58:47.159Z,41.36
2019-04-01T14:01:17.608Z,42.63
2019-04-01T14:03:48.114Z,42.44
2019-04-01T14:06:18.485Z,41.63
2019-04-01T14:08:48.892Z,40.36
2019-04-01T14:11:20.011Z,41.52
2019-04-01T14:13:50.412Z,41.74
2019-04-01T14:16:20.795Z,40.96
2019-04-01T14:18:51.491Z,40.96
2019-04-01T14:21:23.390Z,41.42
2019-04-01T14:23:53.981Z,39.80
2019-04-01T14:26:24.715Z,40.28
2019-04-01T14:28:55.242Z,40.92
2019-04-01T14:31:25.695Z,41.31
2019-04-01T14:33:56.180Z,41.49
2019-04-01T14:36:26.834Z,41.10
2019-04-01T14:38:57.225Z,41.39
2019-04-01T14:41:27.691Z,41.38
2019-04-01T14:43:58.191Z,41.84
2019-04-01T14:46:28.986Z,40.23
2019-04-01T14:49:00.543Z,40.38
2019-04-01T14:51:31.693Z,40.37
2019-04-01T14:54:02.133Z,41.23
2019-04-01T14:56:32.579Z,41.34
2019-04-01T14:59:02.945Z,41.11
2019-04-01T15:01:33.367Z,41.62
2019-04-01T15:04:03.784Z,40.22
2019-04-01T15:06:34.242Z,39.81
2019-04-01T15:09:06.292Z,40.31
2019-04-01T15:11:36.671Z,39.98
2019-04-01T15:14:08.574Z,40.18
2019-04-01T15:16:39.092Z,39.99
2019-04-01T15:19:12.672Z,40.94
2019-04-01T15:21:41.674Z,40.81
2019-04-01T15:24:12.367Z,41.24
2019-04-01T15:26:43.080Z,40.96
2019-04-01T15:29:13.531Z,41.22
2019-04-01T15:31:44.057Z,41.92
2019-04-01T15:34:14.569Z,40.15
2019-04-01T15:36:45.040Z,40.78
2019-04-01T15:39:16.252Z,40.41
2019-04-01T15:41:46.687Z,40.54
2019-04-01T15:44:17.219Z,40.55
2019-04-01T15:46:49.672Z,42.24
2019-04-01T15:49:20.133Z,41.05
2019-04-01T15:51:50.974Z,40.70
2019-04-01T15:54:22.915Z,39.69
2019-04-01T15:56:53.388Z,40.54
2019-04-01T15:59:25.481Z,41.99
2019-04-01T16:01:59.453Z,40.92
2019-04-01T16:04:32.046Z,40.78
2019-04-01T16:07:02.782Z,40.94
2019-04-01T16:09:33.737Z,41.02
2019-04-01T16:12:05.406Z,40.58
2019-04-01T16:14:35.847Z,40.44
2019-04-01T16:17:06.232Z,40.33
2019-04-01T16:19:37.028Z,40.75
2019-04-01T16:22:07.445Z,41.22
2019-04-01T16:24:40.215Z,40.70
2019-04-01T16:27:10.684Z,40.49
2019-04-01T16:29:41.478Z,40.86
2019-04-01T16:32:11.961Z,41.42
2019-04-01T16:34:42.658Z,40.07
2019-04-01T16:37:13.090Z,41.13
2019-04-01T16:39:43.571Z,41.67
2019-04-01T16:42:13.977Z,42.50
2019-04-01T16:44:44.403Z,41.63
2019-04-01T16:47:17.511Z,42.07
2019-04-01T16:49:49.218Z,43.39
2019-04-01T16:52:22.734Z,42.56
2019-04-01T16:55:02.280Z,41.88
2019-04-01T16:57:32.717Z,41.82
2019-04-01T17:00:03.184Z,42.47
2019-04-01T17:02:33.969Z,42.72
2019-04-01T17:05:04.580Z,42.67
2019-04-01T17:07:35.843Z,42.95
2019-04-01T17:10:07.111Z,43.07
2019-04-01T17:12:40.230Z,42.41
2019-04-01T17:15:10.605Z,42.69
2019-04-01T17:17:41.123Z,43.92
2019-04-01T17:20:12.548Z,45.32
2019-04-01T17:22:43.042Z,45.63
2019-04-01T17:25:15.678Z,45.46
2019-04-01T17:27:46.077Z,45.73
2019-04-01T17:30:16.894Z,46.52
2019-04-01T17:32:49.706Z,47.15
2019-04-01T17:35:20.306Z,47.07
2019-04-01T17:37:50.900Z,47.53
2019-04-01T17:40:22.809Z,47.80
2019-04-01T17:42:55.467Z,48.19
2019-04-01T17:45:34.297Z,48.20
2019-04-01T17:48:05.225Z,48.51
2019-04-01T17:50:35.688Z,48.74
2019-04-01T17:53:08.574Z,49.38
2019-04-01T17:55:39.626Z,48.85
2019-04-01T17:58:10.779Z,48.66
2019-04-01T18:00:44.541Z,48.62
2019-04-01T18:03:16.069Z,49.56
2019-04-01T18:05:46.719Z,49.58
2019-04-01T18:08:17.101Z,50.36
2019-04-01T18:10:48.874Z,50.78
2019-04-01T18:13:20.287Z,50.90
2019-04-01T18:15:51.725Z,51.03
2019-04-01T18:18:27.036Z,51.25
2019-04-01T18:20:57.737Z,50.90
2019-04-01T18:23:28.257Z,50.02
2019-04-01T18:25:58.643Z,49.46
2019-04-01T18:28:29.050Z,49.90
2019-04-01T18:30:59.855Z,50.04
2019-04-01T18:33:30.774Z,50.80
2019-04-01T18:36:01.214Z,51.35
2019-04-01T18:38:31.706Z,52.08
2019-04-01T18:41:02.341Z,52.30
2019-04-01T18:43:32.713Z,52.55
2019-04-01T18:46:03.479Z,52.68
2019-04-01T18:48:34.191Z,53.81
2019-04-01T18:51:04.889Z,54.18
2019-04-01T18:53:36.311Z,54.92
2019-04-01T18:56:07.439Z,54.76
2019-04-01T18:58:37.807Z,55.21
2019-04-01T19:01:08.189Z,55.70
2019-04-01T19:03:41.427Z,55.88
2019-04-01T19:06:11.182Z,56.09
2019-04-01T19:08:41.638Z,55.83
2019-04-01T19:11:12.124Z,55.95
2019-04-01T19:13:42.753Z,55.91
2019-04-01T19:16:16.430Z,55.74
2019-04-01T19:18:45.408Z,55.59
2019-04-01T19:21:15.883Z,55.46
2019-04-01T19:23:46.285Z,55.59
2019-04-01T19:26:16.675Z,55.76
2019-04-01T19:28:47.503Z,55.73
2019-04-01T19:31:17.939Z,55.73
2019-04-01T19:33:48.904Z,56.03
2019-04-01T19:36:19.272Z,56.35
2019-04-01T19:38:49.599Z,55.85
2019-04-01T19:41:20.577Z,55.52
2019-04-01T19:43:51.452Z,55.61
2019-04-01T19:46:21.884Z,55.74
2019-04-01T19:48:52.561Z,55.50
2019-04-01T19:51:22.893Z,55.43
2019-04-01T19:53:53.550Z,55.76
2019-04-01T19:56:24.550Z,55.70
2019-04-01T19:58:54.921Z,55.85
2019-04-01T20:01:25.505Z,55.98
2019-04-01T20:03:56.774Z,56.10
2019-04-01T20:06:27.200Z,55.83
2019-04-01T20:08:57.576Z,56.04
2019-04-01T20:11:27.979Z,56.05
2019-04-01T20:13:58.336Z,56.38
2019-04-01T20:16:28.730Z,56.48
2019-04-01T20:18:59.027Z,56.87
2019-04-01T20:21:29.685Z,56.88
2019-04-01T20:24:00.079Z,57.13
2019-04-01T20:26:30.525Z,57.35
2019-04-01T20:29:02.089Z,57.25
2019-04-01T20:31:33.155Z,56.99
2019-04-01T20:34:04.374Z,57.06
2019-04-01T20:36:35.581Z,57.02
2019-04-01T20:39:08.764Z,56.96
2019-04-01T20:41:39.132Z,56.76
2019-04-01T20:44:09.457Z,56.75
2019-04-01T20:46:39.818Z,56.97
2019-04-01T20:49:11.131Z,57.28
2019-04-01T20:51:42.786Z,57.41
2019-04-01T20:54:16.630Z,57.81
2019-04-01T20:56:48.201Z,58.02
2019-04-01T20:59:19.290Z,58.08
2019-04-01T21:01:49.669Z,58.00
2019-04-01T21:04:20.331Z,57.89
2019-04-01T21:06:50.637Z,57.85
2019-04-01T21:09:20.910Z,58.03
2019-04-01T21:11:51.312Z,57.77
2019-04-01T21:14:22.664Z,58.24
2019-04-01T21:16:53.178Z,58.55
2019-04-01T21:19:23.562Z,58.99
2019-04-01T21:21:53.956Z,59.25
2019-04-01T21:24:24.768Z,59.12
2019-04-01T21:26:55.935Z,58.87
2019-04-01T21:29:27.619Z,58.86
2019-04-01T21:31:58.004Z,59.07
2019-04-01T21:34:28.406Z,58.88
2019-04-01T21:36:59.205Z,58.74
2019-04-01T21:39:30.251Z,58.71
2019-04-01T21:42:01.123Z,58.16
2019-04-01T21:44:31.486Z,58.23
2019-04-01T21:47:02.219Z,58.68
2019-04-01T21:49:32.569Z,58.67
2019-04-01T21:52:04.349Z,58.98
2019-04-01T21:54:34.856Z,59.72
2019-04-01T21:57:05.252Z,59.58
2019-04-01T22:00:00.500Z,59.60
2019-04-01T22:02:36.153Z,60.16
2019-04-01T22:05:05.510Z,60.35
2019-04-01T22:07:35.971Z,61.00
2019-04-01T22:10:07.385Z,61.02
2019-04-01T22:12:40.060Z,61.04
2019-04-01T22:15:12.762Z,61.15
2019-04-01T22:17:43.094Z,61.12
2019-04-01T22:20:13.696Z,61.32
2019-04-01T22:22:44.358Z,61.45
2019-04-01T22:25:14.757Z,61.44
2019-04-01T22:27:45.135Z,61.35
2019-04-01T22:30:17.171Z,60.81
2019-04-01T22:32:48.308Z,61.18
2019-04-01T22:35:18.697Z,61.33
2019-04-01T22:37:49.080Z,61.86
2019-04-01T22:40:19.469Z,62.04
2019-04-01T22:42:50.071Z,61.96
2019-04-01T22:45:20.650Z,62.11
2019-04-01T22:47:51.841Z,62.08
2019-04-01T22:50:22.217Z,62.31
2019-04-01T22:52:52.627Z,62.24
2019-04-01T22:55:22.984Z,62.34
2019-04-01T22:57:53.724Z,62.32
2019-04-01T23:00:24.258Z,62.30
2019-04-01T23:02:54.620Z,62.28
2019-04-01T23:05:25.009Z,62.23
2019-04-01T23:07:55.396Z,61.93
2019-04-01T23:10:27.191Z,61.74
2019-04-01T23:12:58.053Z,61.86
2019-04-01T23:15:28.382Z,61.83
2019-04-01T23:17:58.740Z,61.73
2019-04-01T23:20:29.391Z,61.63
2019-04-01T23:22:59.761Z,61.61
2019-04-01T23:25:30.170Z,61.58
2019-04-01T23:28:00.535Z,61.92
2019-04-01T23:30:30.969Z,62.39
2019-04-01T23:33:01.614Z,62.51
2019-04-01T23:35:32.026Z,62.90
2019-04-01T23:38:02.355Z,63.10
2019-04-01T23:40:32.884Z,63.31
2019-04-01T23:43:03.587Z,63.99
2019-04-01T23:45:33.986Z,63.96
2019-04-01T23:48:04.716Z,64.27
2019-04-01T23:50:35.825Z,64.58
2019-04-01T23:53:06.313Z,64.38
2019-04-01T23:55:36.594Z,64.53
2019-04-01T23:58:07.522Z,64.73
